Time;durP1;ratioP1;P1;durP2;ratioP2;P2;SDS_P1;SDS_P2;PMS_P1;PMS_P2;Temp;Humidity;BMP_temperature;BMP_pressure;BME280_temperature;BME280_humidity;BME280_pressure;Samples;Min_cycle;Max_cycle;Signal;HPM_P1;HPM_P2
2021/07/16 00:00:22;;;;;;;1.57;1.00;;;19.30;98.20;;;;;;4996381;28;20473;-83
2021/07/16 00:02:51;;;;;;;1.60;0.90;;;19.30;98.20;;;;;;5014360;28;20513;-80
2021/07/16 00:05:18;;;;;;;1.60;0.90;;;19.20;98.20;;;;;;4997927;28;20491;-80
2021/07/16 00:07:45;;;;;;;1.60;1.00;;;19.20;98.20;;;;;;5012746;28;20542;-83
2021/07/16 00:10:15;;;;;;;1.60;0.90;;;19.20;98.20;;;;;;4994572;28;20568;-83
2021/07/16 00:12:42;;;;;;;1.60;0.90;;;19.20;98.20;;;;;;5002641;28;20483;-79
2021/07/16 00:15:10;;;;;;;1.60;0.90;;;19.20;98.20;;;;;;4991801;28;20485;-79
2021/07/16 00:17:37;;;;;;;1.60;0.90;;;19.20;98.20;;;;;;5004861;28;20848;-80
2021/07/16 00:20:05;;;;;;;1.60;0.93;;;19.20;98.20;;;;;;4989634;28;20477;-80
2021/07/16 00:22:32;;;;;;;1.60;0.90;;;19.20;98.20;;;;;;5001015;28;20494;-80
2021/07/16 00:24:59;;;;;;;1.60;0.97;;;19.20;98.20;;;;;;4992845;28;20492;-79
2021/07/16 00:27:27;;;;;;;1.60;0.90;;;19.20;98.20;;;;;;4993233;28;20492;-80
2021/07/16 00:29:54;;;;;;;1.60;1.00;;;19.20;98.20;;;;;;4991081;28;20469;-80
2021/07/16 00:32:20;;;;;;;1.60;0.90;;;19.20;98.20;;;;;;4999845;28;20491;-80
2021/07/16 00:34:47;;;;;;;1.60;0.97;;;19.20;98.20;;;;;;4998381;28;20477;-80
2021/07/16 00:37:14;;;;;;;1.60;0.90;;;19.20;98.20;;;;;;5002280;28;20490;-80
2021/07/16 00:39:41;;;;;;;1.60;0.90;;;19.20;98.20;;;;;;4998786;28;20492;-80
2021/07/16 00:42:08;;;;;;;1.60;0.90;;;19.20;98.20;;;;;;4989289;28;20479;-81
2021/07/16 00:44:37;;;;;;;1.60;0.90;;;19.20;98.20;;;;;;4996373;28;20461;-81
2021/07/16 00:47:05;;;;;;;1.60;0.90;;;19.10;98.20;;;;;;4997704;28;20997;-80
2021/07/16 00:49:32;;;;;;;1.60;0.93;;;19.10;98.20;;;;;;4998649;28;20523;-81
2021/07/16 00:51:59;;;;;;;1.60;0.90;;;19.10;98.20;;;;;;4999393;28;21000;-80
2021/07/16 00:54:25;;;;;;;1.60;0.90;;;19.10;98.20;;;;;;5001226;28;20468;-80
2021/07/16 00:56:54;;;;;;;1.60;0.90;;;19.10;98.20;;;;;;4991388;28;20562;-81
2021/07/16 00:59:21;;;;;;;1.60;1.00;;;19.10;98.20;;;;;;5000338;28;20487;-78
2021/07/16 01:01:50;;;;;;;1.60;0.90;;;19.10;98.20;;;;;;4990637;28;21155;-78
2021/07/16 01:04:16;;;;;;;1.60;1.00;;;19.00;98.20;;;;;;5002689;28;20469;-78
2021/07/16 01:06:43;;;;;;;1.60;0.93;;;19.00;98.20;;;;;;4993311;28;20501;-80
2021/07/16 01:09:10;;;;;;;1.60;0.90;;;19.00;98.20;;;;;;5003870;28;20472;-80
2021/07/16 01:11:37;;;;;;;1.60;0.90;;;19.00;98.20;;;;;;4990448;28;20491;-81
2021/07/16 01:14:04;;;;;;;1.60;0.90;;;19.00;98.20;;;;;;5007038;28;20461;-81
2021/07/16 01:16:31;;;;;;;1.60;0.90;;;19.00;98.20;;;;;;4988982;28;20585;-81
2021/07/16 01:18:59;;;;;;;1.63;1.20;;;19.00;98.20;;;;;;5005123;28;20496;-81
2021/07/16 01:21:32;;;;;;;1.60;1.00;;;18.90;98.20;;;;;;4987288;28;20483;-80
2021/07/16 01:24:00;;;;;;;1.60;1.00;;;18.90;98.20;;;;;;5008019;28;20468;-79
2021/07/16 01:26:30;;;;;;;1.60;0.90;;;18.90;98.20;;;;;;4987454;28;20990;-81
2021/07/16 01:28:57;;;;;;;1.60;0.90;;;18.90;98.20;;;;;;5004189;28;20479;-81
2021/07/16 01:31:24;;;;;;;1.60;1.00;;;18.80;98.20;;;;;;4986968;28;20829;-80
2021/07/16 01:33:51;;;;;;;1.60;0.90;;;18.80;98.20;;;;;;5002335;28;20472;-80
2021/07/16 01:36:18;;;;;;;1.60;0.90;;;18.80;98.20;;;;;;4984084;28;20486;-80
2021/07/16 01:38:45;;;;;;;1.60;0.90;;;18.80;98.20;;;;;;5007802;28;20484;-82
2021/07/16 01:41:13;;;;;;;1.60;1.00;;;18.70;98.20;;;;;;4983068;28;20490;-79
2021/07/16 01:43:40;;;;;;;1.73;1.17;;;18.70;98.20;;;;;;4993840;28;20472;-80
2021/07/16 01:46:06;;;;;;;1.60;1.00;;;18.70;98.20;;;;;;4981376;28;20533;-81
2021/07/16 01:48:34;;;;;;;1.60;0.90;;;18.60;98.20;;;;;;5009310;28;20474;-81
2021/07/16 01:51:01;;;;;;;1.60;1.00;;;18.60;98.20;;;;;;4983479;28;20703;-80
2021/07/16 01:53:27;;;;;;;1.60;1.00;;;18.60;98.20;;;;;;5008896;28;20466;-80
2021/07/16 01:55:54;;;;;;;1.80;1.20;;;18.60;98.20;;;;;;4977625;28;20487;-80
2021/07/16 01:58:22;;;;;;;1.60;0.90;;;18.60;98.20;;;;;;5010765;28;20489;-79
2021/07/16 02:00:50;;;;;;;1.60;0.90;;;18.60;98.20;;;;;;4981234;28;20553;-80
2021/07/16 02:03:18;;;;;;;1.60;0.90;;;18.70;98.20;;;;;;4998760;28;20499;-80
2021/07/16 02:05:46;;;;;;;1.60;1.00;;;18.70;98.20;;;;;;4985736;28;20491;-80
2021/07/16 02:08:15;;;;;;;1.60;0.90;;;18.70;98.20;;;;;;4975875;28;20477;-79
2021/07/16 02:10:45;;;;;;;1.60;0.97;;;18.70;98.20;;;;;;4987230;28;20790;-80
2021/07/16 02:13:12;;;;;;;1.60;1.00;;;18.70;98.20;;;;;;4970609;28;20485;-80
2021/07/16 02:15:42;;;;;;;1.60;0.90;;;18.70;98.20;;;;;;4989104;28;20875;-79
2021/07/16 02:18:09;;;;;;;1.60;0.90;;;18.70;98.20;;;;;;5005539;28;20485;-81
2021/07/16 02:20:38;;;;;;;1.60;0.90;;;18.70;98.20;;;;;;4985438;28;20469;-78
2021/07/16 02:23:07;;;;;;;1.60;0.90;;;18.70;98.20;;;;;;5002475;28;20491;-81
2021/07/16 02:25:34;;;;;;;1.60;0.90;;;18.70;98.20;;;;;;4988832;28;20995;-80
2021/07/16 02:28:06;;;;;;;1.60;1.00;;;18.70;98.20;;;;;;5006480;28;20482;-80
2021/07/16 02:30:33;;;;;;;1.60;1.00;;;18.60;98.20;;;;;;4987302;28;20467;-80
2021/07/16 02:33:03;;;;;;;1.60;0.90;;;18.60;98.20;;;;;;5011926;28;20490;-79
2021/07/16 02:35:31;;;;;;;1.60;0.90;;;18.60;98.20;;;;;;4986765;28;20499;-80
2021/07/16 02:37:58;;;;;;;1.60;0.90;;;18.50;98.20;;;;;;4999805;28;20866;-80
2021/07/16 02:40:25;;;;;;;1.60;0.90;;;18.50;98.20;;;;;;4986545;28;20469;-79
2021/07/16 02:42:52;;;;;;;1.60;1.00;;;18.40;98.20;;;;;;4993613;28;20511;-80
2021/07/16 02:45:22;;;;;;;1.60;1.10;;;18.40;98.20;;;;;;4983885;28;20884;-79
2021/07/16 02:47:49;;;;;;;1.60;1.00;;;18.40;98.20;;;;;;5001850;28;20502;-77
2021/07/16 02:50:20;;;;;;;1.60;0.90;;;18.30;98.20;;;;;;4988079;28;20527;-80
2021/07/16 02:52:47;;;;;;;1.60;1.00;;;18.30;98.20;;;;;;4999202;28;20475;-80
2021/07/16 02:55:14;;;;;;;1.60;1.00;;;18.30;98.20;;;;;;4988613;28;20851;-81
2021/07/16 02:57:41;;;;;;;1.60;0.90;;;18.30;98.20;;;;;;4999172;28;20491;-79
2021/07/16 03:00:10;;;;;;;1.60;1.00;;;18.20;98.20;;;;;;4981919;28;20840;-78
2021/07/16 03:02:41;;;;;;;1.60;1.00;;;18.20;98.20;;;;;;4998517;28;20885;-80
2021/07/16 03:05:09;;;;;;;1.60;1.10;;;18.20;98.20;;;;;;4987411;28;20490;-79
2021/07/16 03:07:37;;;;;;;1.60;1.00;;;18.20;98.20;;;;;;5003419;28;20836;-80
2021/07/16 03:10:07;;;;;;;1.60;0.90;;;18.20;98.20;;;;;;4989885;28;20456;-79
2021/07/16 03:12:34;;;;;;;1.60;1.00;;;18.20;98.20;;;;;;4996550;28;20483;-78
2021/07/16 03:15:01;;;;;;;1.70;1.33;;;18.20;98.20;;;;;;4988805;28;20499;-81
2021/07/16 03:17:27;;;;;;;1.60;1.00;;;18.20;98.20;;;;;;4998064;28;20537;-80
2021/07/16 03:19:54;;;;;;;1.97;1.60;;;18.20;98.20;;;;;;4989435;28;20489;-80
2021/07/16 03:22:21;;;;;;;1.60;0.90;;;18.20;98.20;;;;;;4989503;28;20905;-81
2021/07/16 03:24:49;;;;;;;1.60;0.90;;;18.20;98.20;;;;;;4993158;28;20461;-79
2021/07/16 03:27:16;;;;;;;1.73;1.20;;;18.20;98.20;;;;;;5000494;28;20485;-79
2021/07/16 03:29:42;;;;;;;1.60;1.00;;;18.20;98.20;;;;;;5006001;28;20464;-80
2021/07/16 03:32:09;;;;;;;1.60;1.00;;;18.20;98.20;;;;;;4996261;28;20995;-80
2021/07/16 03:34:36;;;;;;;1.60;1.00;;;18.20;98.20;;;;;;5000155;28;20810;-80
2021/07/16 03:37:03;;;;;;;1.60;1.00;;;18.20;98.20;;;;;;4995578;28;20480;-80
2021/07/16 03:39:30;;;;;;;1.60;0.90;;;18.20;98.20;;;;;;4998736;28;21025;-79
2021/07/16 03:41:58;;;;;;;1.60;1.00;;;18.20;98.20;;;;;;4988061;28;20483;-80
2021/07/16 03:44:25;;;;;;;1.60;1.00;;;18.20;98.20;;;;;;4996205;28;20799;-79
2021/07/16 03:46:52;;;;;;;1.60;0.90;;;18.20;98.20;;;;;;4991077;28;20479;-80
2021/07/16 03:49:19;;;;;;;1.60;0.97;;;18.20;98.20;;;;;;4999424;28;20474;-78
2021/07/16 03:51:46;;;;;;;1.60;1.00;;;18.20;98.20;;;;;;4998503;28;20904;-81
2021/07/16 03:54:13;;;;;;;1.60;1.00;;;18.20;98.20;;;;;;5013293;28;20467;-82
2021/07/16 03:56:39;;;;;;;1.60;0.90;;;18.20;98.20;;;;;;4996387;28;20484;-81
2021/07/16 03:59:07;;;;;;;1.60;0.90;;;18.20;98.20;;;;;;5001458;28;20995;-80
2021/07/16 04:01:34;;;;;;;1.60;1.00;;;18.20;98.20;;;;;;4992549;28;20946;-80
2021/07/16 04:04:01;;;;;;;1.60;1.00;;;18.20;98.20;;;;;;5005968;28;20465;-80
2021/07/16 04:06:28;;;;;;;1.60;1.00;;;18.20;98.20;;;;;;4987851;28;20491;-81
2021/07/16 04:09:10;;;;;;;1.60;1.00;;;18.20;98.20;;;;;;5001776;28;20461;-81
2021/07/16 04:11:37;;;;;;;1.60;0.90;;;18.20;98.20;;;;;;4989759;28;20521;-81
2021/07/16 04:14:05;;;;;;;1.60;1.00;;;18.20;98.20;;;;;;5002934;28;20465;-77
2021/07/16 04:16:33;;;;;;;1.60;1.00;;;18.20;98.20;;;;;;4987228;28;20476;-81
2021/07/16 04:19:00;;;;;;;1.60;1.00;;;18.10;98.20;;;;;;5003528;28;20485;-81
2021/07/16 04:21:27;;;;;;;1.60;0.90;;;18.20;98.20;;;;;;4990576;28;20846;-81
2021/07/16 04:23:54;;;;;;;1.60;0.90;;;18.20;98.20;;;;;;5006686;28;20461;-80
2021/07/16 04:26:20;;;;;;;1.60;0.97;;;18.20;98.20;;;;;;4991925;28;20489;-80
2021/07/16 04:28:47;;;;;;;1.60;0.90;;;18.20;98.20;;;;;;5015718;28;20453;-79
2021/07/16 04:31:14;;;;;;;1.60;1.00;;;18.20;98.20;;;;;;4989247;28;20478;-80
2021/07/16 04:33:42;;;;;;;1.60;0.90;;;18.20;98.20;;;;;;5011268;28;20830;-80
2021/07/16 04:36:09;;;;;;;1.60;1.00;;;18.20;98.20;;;;;;4980677;28;20533;-80
2021/07/16 04:38:36;;;;;;;1.60;1.00;;;18.20;98.20;;;;;;5008191;28;20998;-81
2021/07/16 04:41:03;;;;;;;1.60;1.00;;;18.20;98.20;;;;;;4987947;28;20488;-80
2021/07/16 04:43:29;;;;;;;1.83;1.17;;;18.20;98.20;;;;;;5009046;28;20473;-79
2021/07/16 04:45:56;;;;;;;1.50;0.90;;;18.20;98.20;;;;;;4987833;28;20854;-81
2021/07/16 04:48:23;;;;;;;1.60;0.90;;;18.20;98.20;;;;;;5015713;28;20964;-79
2021/07/16 04:50:51;;;;;;;1.60;0.90;;;18.10;98.20;;;;;;4985073;28;20464;-81
2021/07/16 04:53:18;;;;;;;1.60;0.90;;;18.10;98.20;;;;;;5008280;28;20959;-80
2021/07/16 04:55:45;;;;;;;1.57;0.90;;;18.10;98.20;;;;;;4991289;28;21041;-79
2021/07/16 04:58:12;;;;;;;1.60;0.90;;;18.10;98.20;;;;;;4984041;28;20469;-81
2021/07/16 05:00:38;;;;;;;4.03;1.83;;;18.10;98.20;;;;;;4994144;28;20588;-81
2021/07/16 05:03:05;;;;;;;1.60;0.90;;;18.10;98.20;;;;;;5010600;28;20550;-81
2021/07/16 05:05:32;;;;;;;1.60;1.00;;;18.10;98.20;;;;;;4986029;28;20492;-81
2021/07/16 05:08:00;;;;;;;1.57;0.90;;;18.10;98.20;;;;;;5006767;28;20835;-81
2021/07/16 05:10:27;;;;;;;1.60;0.90;;;18.10;98.20;;;;;;4988353;28;20496;-78
2021/07/16 05:12:54;;;;;;;1.60;1.00;;;18.10;98.20;;;;;;5009312;28;20680;-82
2021/07/16 05:15:21;;;;;;;1.60;0.90;;;18.00;98.20;;;;;;4990208;28;20497;-81
2021/07/16 05:17:47;;;;;;;1.60;1.00;;;18.00;98.20;;;;;;5010476;28;20487;-79
2021/07/16 05:20:14;;;;;;;1.60;0.90;;;18.00;98.20;;;;;;4995782;28;20492;-79
2021/07/16 05:22:41;;;;;;;1.60;1.00;;;18.00;98.20;;;;;;5008472;28;20487;-81
2021/07/16 05:25:10;;;;;;;1.60;1.00;;;18.00;98.20;;;;;;4995781;28;20485;-79
2021/07/16 05:27:39;;;;;;;1.60;0.90;;;18.00;98.20;;;;;;5006716;28;20483;-80
2021/07/16 05:30:07;;;;;;;1.60;1.00;;;18.00;98.20;;;;;;4991975;28;20465;-80
2021/07/16 05:32:34;;;;;;;1.60;1.00;;;18.00;98.20;;;;;;5005080;28;20582;-79
2021/07/16 05:35:02;;;;;;;1.57;0.90;;;18.00;98.20;;;;;;4990029;28;20513;-79
2021/07/16 05:37:29;;;;;;;1.60;0.90;;;18.00;98.20;;;;;;5005699;28;20479;-79
2021/07/16 05:39:57;;;;;;;1.60;0.90;;;18.00;98.20;;;;;;4996155;28;20997;-79
2021/07/16 05:42:25;;;;;;;1.60;0.90;;;18.00;98.20;;;;;;4994153;28;20998;-79
2021/07/16 05:44:52;;;;;;;1.60;0.90;;;18.00;98.20;;;;;;4992896;28;20520;-79
2021/07/16 05:47:18;;;;;;;1.60;0.90;;;18.00;98.20;;;;;;5003908;28;20487;-80
2021/07/16 05:49:45;;;;;;;1.60;0.90;;;18.00;98.20;;;;;;4991840;28;20588;-79
2021/07/16 05:52:12;;;;;;;1.60;0.90;;;18.00;98.20;;;;;;4993907;28;20531;-79
2021/07/16 05:54:39;;;;;;;1.60;0.97;;;18.00;98.20;;;;;;4990959;28;20477;-80
2021/07/16 05:57:06;;;;;;;1.60;0.90;;;18.00;98.20;;;;;;5000189;28;20900;-79
2021/07/16 05:59:34;;;;;;;1.60;1.00;;;17.90;98.20;;;;;;5003247;28;20577;-79
2021/07/16 06:02:02;;;;;;;1.60;0.90;;;18.00;98.20;;;;;;5007196;28;20486;-79
2021/07/16 06:04:29;;;;;;;1.60;0.97;;;18.00;98.20;;;;;;5002442;28;20461;-78
2021/07/16 06:06:55;;;;;;;1.60;0.90;;;18.00;98.20;;;;;;4997443;28;20475;-80
2021/07/16 06:09:22;;;;;;;1.60;0.93;;;18.00;98.20;;;;;;5002256;28;20726;-79
2021/07/16 06:11:49;;;;;;;1.60;0.90;;;18.00;98.20;;;;;;4992801;28;21020;-79
2021/07/16 06:14:16;;;;;;;1.60;1.00;;;18.00;98.20;;;;;;5001741;28;20474;-80
2021/07/16 06:16:44;;;;;;;1.60;0.90;;;18.00;98.20;;;;;;5001014;28;20483;-78
2021/07/16 06:19:11;;;;;;;1.60;0.90;;;18.00;98.20;;;;;;5001281;28;20460;-78
2021/07/16 06:21:37;;;;;;;1.60;0.90;;;17.90;98.20;;;;;;4988881;28;20583;-80
2021/07/16 06:24:05;;;;;;;1.87;1.27;;;17.90;98.20;;;;;;5001167;28;21257;-78
2021/07/16 06:26:32;;;;;;;1.60;0.90;;;17.90;98.20;;;;;;4986262;28;21038;-79
2021/07/16 06:28:59;;;;;;;1.60;0.90;;;17.90;98.20;;;;;;4996957;28;20465;-79
2021/07/16 06:31:25;;;;;;;1.60;1.00;;;17.90;98.20;;;;;;4982343;28;20872;-79
2021/07/16 06:33:54;;;;;;;1.60;0.90;;;17.90;98.20;;;;;;4996499;28;20468;-79
2021/07/16 06:36:20;;;;;;;1.60;1.00;;;17.90;98.20;;;;;;4985561;28;20491;-81
2021/07/16 06:38:47;;;;;;;1.60;0.90;;;17.90;98.20;;;;;;5004456;28;20798;-80
2021/07/16 06:41:14;;;;;;;1.60;0.90;;;17.80;98.20;;;;;;4980029;28;20567;-80
2021/07/16 06:43:41;;;;;;;1.80;1.57;;;17.90;98.20;;;;;;5003003;28;20582;-80
2021/07/16 06:46:09;;;;;;;1.60;0.90;;;17.80;98.20;;;;;;4981447;28;20577;-78
2021/07/16 06:48:36;;;;;;;1.60;1.13;;;17.90;98.20;;;;;;5008981;28;20955;-79
2021/07/16 06:51:04;;;;;;;1.70;1.37;;;17.90;98.20;;;;;;4977496;28;20500;-79
2021/07/16 06:53:31;;;;;;;1.60;1.00;;;17.90;98.20;;;;;;5003973;28;20464;-79
2021/07/16 06:55:58;;;;;;;1.60;0.93;;;17.90;98.20;;;;;;4975483;28;20964;-79
2021/07/16 06:58:24;;;;;;;1.60;1.00;;;18.00;98.20;;;;;;5002052;28;20485;-78
2021/07/16 07:00:51;;;;;;;1.60;1.10;;;18.00;98.20;;;;;;4975644;28;21031;-79
2021/07/16 07:03:18;;;;;;;1.57;1.00;;;18.10;98.20;;;;;;5010634;28;20756;-79
2021/07/16 07:05:45;;;;;;;1.60;1.00;;;18.10;98.20;;;;;;4994219;28;20496;-79
2021/07/16 07:08:13;;;;;;;1.60;1.10;;;18.10;98.20;;;;;;5011641;28;20930;-79
2021/07/16 07:10:40;;;;;;;1.60;1.10;;;18.10;98.20;;;;;;4993578;28;20828;-79
2021/07/16 07:13:07;;;;;;;1.60;0.90;;;18.10;98.20;;;;;;5005880;28;20877;-79
2021/07/16 07:15:36;;;;;;;1.57;0.97;;;18.20;98.20;;;;;;4993793;28;20493;-79
2021/07/16 07:18:04;;;;;;;1.60;1.00;;;18.20;98.20;;;;;;4999278;28;20533;-78
2021/07/16 07:20:30;;;;;;;1.60;0.90;;;18.20;98.20;;;;;;4995205;28;21105;-80
2021/07/16 07:22:57;;;;;;;1.60;0.90;;;18.30;98.20;;;;;;5006537;28;20482;-80
2021/07/16 07:25:26;;;;;;;1.60;0.97;;;18.30;98.20;;;;;;4992353;28;20485;-77
2021/07/16 07:27:52;;;;;;;1.60;1.00;;;18.30;98.20;;;;;;5013957;28;20483;-78
2021/07/16 07:30:20;;;;;;;1.53;1.00;;;18.30;98.20;;;;;;4983984;28;21398;-78
2021/07/16 07:32:47;;;;;;;1.60;0.90;;;18.30;98.20;;;;;;5006194;28;21061;-79
2021/07/16 07:35:15;;;;;;;1.60;0.90;;;18.30;98.20;;;;;;4987218;28;20678;-76
2021/07/16 07:37:41;;;;;;;1.60;1.00;;;18.30;98.20;;;;;;5009576;28;20493;-78
2021/07/16 07:40:11;;;;;;;1.60;1.10;;;18.20;98.20;;;;;;4988732;28;20492;-78
2021/07/16 07:42:40;;;;;;;1.57;0.90;;;18.20;98.20;;;;;;5008862;28;21235;-78
2021/07/16 07:45:08;;;;;;;1.60;0.90;;;18.20;98.20;;;;;;4987734;28;20493;-78
2021/07/16 07:47:35;;;;;;;1.57;0.90;;;18.20;98.20;;;;;;5008700;28;20509;-78
2021/07/16 07:50:04;;;;;;;1.57;0.90;;;18.20;98.20;;;;;;4994573;28;21118;-78
2021/07/16 07:52:31;;;;;;;1.70;1.30;;;18.30;98.20;;;;;;5003326;28;20478;-79
2021/07/16 07:54:58;;;;;;;1.57;0.90;;;18.30;98.20;;;;;;4995621;28;20484;-79
2021/07/16 07:57:25;;;;;;;1.60;0.93;;;18.30;98.20;;;;;;5008622;28;20481;-78
2021/07/16 07:59:53;;;;;;;1.53;1.00;;;18.30;98.20;;;;;;5000570;28;20464;-80
2021/07/16 08:02:20;;;;;;;1.57;0.93;;;18.30;98.20;;;;;;4995132;28;20491;-79
2021/07/16 08:04:47;;;;;;;1.60;1.00;;;18.30;98.20;;;;;;4997571;28;20564;-78
2021/07/16 08:07:16;;;;;;;1.60;0.90;;;18.20;98.20;;;;;;4997356;28;20571;-80
2021/07/16 08:09:43;;;;;;;1.57;0.90;;;18.20;98.20;;;;;;4990315;28;20497;-80
2021/07/16 08:12:10;;;;;;;1.60;0.90;;;18.20;98.20;;;;;;4998571;28;20478;-79
2021/07/16 08:14:37;;;;;;;1.60;1.10;;;18.20;98.20;;;;;;4999074;28;20557;-80
2021/07/16 08:17:05;;;;;;;1.60;1.00;;;18.30;98.20;;;;;;4993131;28;20487;-78
2021/07/16 08:19:34;;;;;;;1.60;0.90;;;18.40;98.20;;;;;;4993760;28;20472;-79
2021/07/16 08:22:02;;;;;;;1.60;1.00;;;18.40;98.20;;;;;;4989680;28;20494;-78
2021/07/16 08:24:29;;;;;;;1.60;0.97;;;18.50;98.20;;;;;;4994784;28;20465;-80
2021/07/16 08:26:55;;;;;;;1.60;0.90;;;18.60;98.20;;;;;;4997927;28;20509;-78
2021/07/16 08:29:23;;;;;;;1.60;1.00;;;18.70;98.20;;;;;;4999009;28;20886;-80
2021/07/16 08:31:50;;;;;;;1.60;0.97;;;18.80;98.20;;;;;;4990748;28;20522;-78
2021/07/16 08:34:18;;;;;;;1.60;1.00;;;18.90;98.20;;;;;;5004695;28;20472;-80
2021/07/16 08:36:45;;;;;;;1.60;0.97;;;19.00;98.20;;;;;;4987246;28;20488;-79
2021/07/16 08:39:13;;;;;;;1.60;0.93;;;19.10;98.20;;;;;;5006356;28;20476;-79
2021/07/16 08:41:40;;;;;;;1.60;0.90;;;19.20;98.20;;;;;;4990334;28;20787;-77
2021/07/16 08:44:07;;;;;;;1.60;0.90;;;19.20;98.20;;;;;;5004918;28;20846;-79
2021/07/16 08:46:35;;;;;;;1.60;0.90;;;19.30;98.20;;;;;;4984475;28;20611;-79
2021/07/16 08:49:02;;;;;;;1.60;0.90;;;19.30;98.20;;;;;;4999536;28;20481;-78
2021/07/16 08:51:30;;;;;;;1.60;1.10;;;19.30;98.20;;;;;;4984950;28;20581;-75
2021/07/16 08:53:57;;;;;;;1.60;0.90;;;19.40;98.20;;;;;;5004495;28;20486;-78
2021/07/16 08:56:28;;;;;;;1.70;1.30;;;19.40;98.20;;;;;;4985176;28;20786;-76
2021/07/16 08:58:55;;;;;;;1.70;1.20;;;19.40;98.20;;;;;;5005106;28;20527;-77
2021/07/16 09:01:22;;;;;;;1.60;0.90;;;19.40;98.20;;;;;;4983682;28;20997;-77
2021/07/16 09:04:00;;;;;;;1.60;0.93;;;19.40;98.20;;;;;;5005885;28;20957;-79
2021/07/16 09:06:49;;;;;;;1.60;0.90;;;19.50;98.20;;;;;;4982686;28;20521;-78
2021/07/16 09:09:17;;;;;;;1.60;0.90;;;19.60;98.20;;;;;;5001281;28;20461;-78
2021/07/16 09:11:46;;;;;;;1.60;0.90;;;19.70;98.20;;;;;;4986060;28;20484;-78
2021/07/16 09:14:25;;;;;;;1.60;0.90;;;19.70;98.20;;;;;;4998065;28;20960;-78
2021/07/16 09:16:56;;;;;;;1.60;0.90;;;19.60;98.20;;;;;;4995440;28;20483;-79
2021/07/16 09:19:31;;;;;;;1.60;1.00;;;19.50;98.20;;;;;;4999384;28;20469;-79
2021/07/16 09:22:10;;;;;;;1.60;0.90;;;19.50;98.20;;;;;;4982809;28;20487;-79
2021/07/16 09:24:37;;;;;;;1.67;1.20;;;19.60;98.20;;;;;;4991345;28;20465;-78
2021/07/16 09:27:34;;;;;;;1.60;1.00;;;19.60;98.20;;;;;;4990760;28;20486;-78
2021/07/16 09:30:12;;;;;;;1.60;0.90;;;19.60;98.20;;;;;;4987432;28;20814;-79
2021/07/16 09:32:40;;;;;;;1.60;0.97;;;19.60;98.20;;;;;;4999555;28;20495;-76
2021/07/16 09:35:08;;;;;;;1.57;0.90;;;19.50;98.20;;;;;;4985097;28;20498;-78
2021/07/16 09:37:50;;;;;;;1.57;0.90;;;19.60;98.20;;;;;;4994750;28;20488;-77
2021/07/16 09:40:24;;;;;;;1.60;0.90;;;19.60;98.20;;;;;;4987686;28;20496;-79
2021/07/16 09:43:08;;;;;;;1.60;0.90;;;19.70;98.20;;;;;;4999390;28;20908;-77
2021/07/16 09:45:37;;;;;;;1.60;0.90;;;19.70;98.20;;;;;;4992711;28;20585;-78
2021/07/16 09:48:44;;;;;;;1.60;0.90;;;19.70;98.20;;;;;;4994918;28;20491;-77
2021/07/16 09:51:27;;;;;;;1.60;0.90;;;19.80;98.20;;;;;;4978019;28;20494;-77
2021/07/16 09:54:01;;;;;;;1.60;0.90;;;19.90;98.20;;;;;;5009169;28;20492;-77
2021/07/16 09:56:35;;;;;;;2.73;1.63;;;19.90;98.20;;;;;;4986156;28;21116;-77
2021/07/16 09:59:05;;;;;;;1.60;0.90;;;19.90;98.20;;;;;;5007439;28;20904;-77
2021/07/16 10:01:35;;;;;;;1.60;0.90;;;20.00;98.20;;;;;;4986789;28;20488;-79
2021/07/16 10:04:09;;;;;;;1.60;0.90;;;20.00;98.20;;;;;;5006912;28;20523;-79
2021/07/16 10:06:50;;;;;;;1.60;0.90;;;20.10;98.20;;;;;;4987013;28;20483;-78
2021/07/16 10:09:24;;;;;;;1.70;1.27;;;20.10;98.20;;;;;;5002264;28;20516;-78
2021/07/16 10:12:08;;;;;;;1.60;0.90;;;20.20;98.20;;;;;;4991893;28;20511;-77
2021/07/16 10:14:41;;;;;;;1.60;1.00;;;20.20;98.20;;;;;;4992993;28;20523;-78
2021/07/16 10:17:09;;;;;;;1.60;1.00;;;20.20;98.20;;;;;;4989904;28;20488;-75
2021/07/16 10:19:38;;;;;;;1.60;0.90;;;20.30;98.20;;;;;;4991660;28;20476;-78
2021/07/16 10:22:08;;;;;;;1.57;0.90;;;20.30;98.20;;;;;;4987356;28;20499;-78
2021/07/16 10:24:40;;;;;;;1.57;0.90;;;20.40;98.20;;;;;;4990428;28;20478;-78
2021/07/16 10:27:10;;;;;;;1.60;1.00;;;20.50;98.20;;;;;;4994960;28;20483;-78
2021/07/16 10:30:10;;;;;;;1.70;1.27;;;20.50;98.20;;;;;;4992744;28;20477;-78
2021/07/16 10:32:45;;;;;;;1.60;0.90;;;20.50;98.20;;;;;;4993331;28;20492;-78
2021/07/16 10:35:20;;;;;;;1.60;0.90;;;20.40;98.20;;;;;;4982928;28;20558;-77
2021/07/16 10:37:49;;;;;;;1.57;1.00;;;20.50;98.20;;;;;;5001666;28;20491;-80
2021/07/16 10:40:39;;;;;;;1.60;0.90;;;20.70;98.20;;;;;;4990195;28;20836;-81
2021/07/16 10:43:10;;;;;;;1.60;0.90;;;20.80;97.80;;;;;;4996306;28;20492;-81
2021/07/16 10:45:39;;;;;;;1.60;1.00;;;21.10;98.20;;;;;;4989841;28;20499;-76
2021/07/16 10:48:15;;;;;;;1.60;0.90;;;21.10;98.20;;;;;;5002984;28;20478;-77
2021/07/16 10:50:44;;;;;;;1.60;0.90;;;21.20;97.90;;;;;;4983072;28;20535;-78
2021/07/16 10:53:17;;;;;;;1.60;0.90;;;21.30;97.80;;;;;;5006410;28;20485;-79
2021/07/16 10:56:09;;;;;;;1.60;1.00;;;21.30;98.20;;;;;;4985692;28;20493;-77
2021/07/16 10:58:44;;;;;;;1.60;0.97;;;21.40;97.40;;;;;;4976564;28;20515;-78
2021/07/16 11:01:12;;;;;;;1.53;0.90;;;21.40;96.60;;;;;;4979988;28;20480;-79
2021/07/16 11:03:40;;;;;;;1.57;0.90;;;21.30;97.10;;;;;;4997886;28;20470;-78
2021/07/16 11:06:08;;;;;;;1.60;0.90;;;21.50;97.40;;;;;;4979332;28;20592;-79
2021/07/16 11:08:54;;;;;;;1.60;0.90;;;21.70;97.00;;;;;;4997850;28;20557;-79
2021/07/16 11:11:34;;;;;;;1.60;0.90;;;21.90;95.60;;;;;;4981680;28;20550;-79
2021/07/16 11:14:01;;;;;;;2.47;1.93;;;22.10;95.40;;;;;;4995840;28;20468;-79
2021/07/16 11:16:41;;;;;;;1.60;0.90;;;22.30;96.10;;;;;;4985657;28;21005;-79
2021/07/16 11:19:21;;;;;;;1.57;0.90;;;22.50;95.30;;;;;;5006259;28;20473;-79
2021/07/16 11:22:06;;;;;;;1.60;0.90;;;22.70;93.70;;;;;;4987177;28;20499;-78
2021/07/16 11:24:35;;;;;;;1.60;0.90;;;22.80;94.90;;;;;;4999724;28;20473;-76
2021/07/16 11:27:07;;;;;;;1.53;0.90;;;22.80;93.80;;;;;;5000685;28;20483;-81
2021/07/16 11:29:35;;;;;;;1.60;0.90;;;22.60;94.50;;;;;;5001696;28;21110;-80
2021/07/16 11:32:11;;;;;;;1.60;0.90;;;22.60;94.30;;;;;;4995735;28;20491;-81
2021/07/16 11:34:45;;;;;;;1.60;0.90;;;22.50;94.70;;;;;;4996898;28;20491;-81
2021/07/16 11:37:12;;;;;;;1.60;0.90;;;22.60;94.90;;;;;;5000996;28;20896;-82
2021/07/16 11:39:40;;;;;;;1.57;0.90;;;22.60;93.20;;;;;;4993050;28;20472;-79
2021/07/16 11:42:09;;;;;;;1.60;0.90;;;22.60;94.60;;;;;;4998260;28;20708;-81
2021/07/16 11:44:40;;;;;;;1.60;0.90;;;22.70;94.30;;;;;;4996267;28;20624;-82
2021/07/16 11:47:17;;;;;;;1.57;0.90;;;22.60;93.70;;;;;;4995122;28;20540;-80
2021/07/16 11:49:45;;;;;;;1.53;0.87;;;22.60;93.70;;;;;;4999167;28;20465;-81
2021/07/16 11:52:15;;;;;;;1.53;0.87;;;22.50;93.80;;;;;;5001988;28;20475;-81
2021/07/16 11:54:42;;;;;;;1.57;0.90;;;22.60;93.60;;;;;;4997966;28;20468;-78
2021/07/16 11:57:10;;;;;;;1.60;1.10;;;22.40;93.60;;;;;;4992109;28;20926;-79
2021/07/16 11:59:37;;;;;;;1.53;0.90;;;22.40;94.80;;;;;;4992184;28;21109;-78
2021/07/16 12:02:06;;;;;;;1.50;0.90;;;22.40;95.20;;;;;;4994954;28;20486;-80
2021/07/16 12:04:33;;;;;;;1.60;0.90;;;22.40;94.50;;;;;;4999067;28;20477;-78
2021/07/16 12:06:59;;;;;;;1.53;0.90;;;22.50;94.80;;;;;;4990691;28;20557;-78
2021/07/16 12:09:34;;;;;;;1.53;0.90;;;22.50;94.10;;;;;;4995592;28;20472;-79
2021/07/16 12:12:04;;;;;;;1.57;0.90;;;22.60;94.20;;;;;;4997009;28;20479;-80
2021/07/16 12:14:50;;;;;;;1.60;0.90;;;22.60;92.70;;;;;;5000904;28;20491;-79
2021/07/16 12:17:19;;;;;;;1.70;1.20;;;22.50;93.70;;;;;;4992382;28;20590;-78
2021/07/16 12:19:47;;;;;;;1.50;0.90;;;22.60;94.30;;;;;;4990679;28;20464;-79
2021/07/16 12:22:15;;;;;;;1.50;0.90;;;22.40;92.60;;;;;;4996863;28;20692;-79
2021/07/16 12:24:42;;;;;;;2.33;1.77;;;22.20;92.80;;;;;;4993944;28;20465;-78
2021/07/16 12:27:10;;;;;;;1.60;0.90;;;22.10;93.60;;;;;;5000201;28;21034;-79
2021/07/16 12:29:38;;;;;;;1.60;1.00;;;22.20;95.70;;;;;;4996987;28;20468;-78
2021/07/16 12:32:07;;;;;;;1.53;0.90;;;22.40;94.30;;;;;;4991847;28;20999;-79
2021/07/16 12:34:34;;;;;;;1.50;0.90;;;22.50;94.50;;;;;;4992639;28;21064;-78
2021/07/16 12:37:09;;;;;;;1.53;0.90;;;22.50;92.90;;;;;;4994232;28;20490;-79
2021/07/16 12:39:36;;;;;;;1.53;0.90;;;22.50;93.50;;;;;;4998021;28;20986;-79
2021/07/16 12:42:14;;;;;;;1.57;0.90;;;22.40;93.60;;;;;;4993440;28;20860;-78
2021/07/16 12:45:00;;;;;;;1.53;0.90;;;22.40;93.20;;;;;;4997475;28;20468;-79
2021/07/16 12:47:29;;;;;;;1.57;0.90;;;22.30;94.10;;;;;;5006684;28;20502;-78
2021/07/16 12:50:10;;;;;;;1.53;0.90;;;22.20;93.90;;;;;;4995478;28;20469;-78
2021/07/16 12:52:37;;;;;;;1.60;0.90;;;22.10;94.50;;;;;;4994650;28;20871;-78
2021/07/16 12:55:12;;;;;;;1.80;1.37;;;22.00;94.90;;;;;;4996772;28;20484;-80
2021/07/16 12:57:39;;;;;;;1.53;0.90;;;22.10;94.50;;;;;;5007910;28;20858;-77